Time;durP1;ratioP1;P1;durP2;ratioP2;P2;SDS_P1;SDS_P2;PMS_P1;PMS_P2;Temp;Humidity;BMP_temperature;BMP_pressure;BME280_temperature;BME280_humidity;BME280_pressure;Samples;Min_cycle;Max_cycle;Signal;HPM_P1;HPM_P2
2022/11/10 00:02:16;;;;;;;3.57;3.47;;;21.90;94.60;;;;;;5013769;28;20460;-63
2022/11/10 00:04:44;;;;;;;3.83;3.53;;;21.80;94.70;;;;;;5013616;28;20537;-63
2022/11/10 00:07:11;;;;;;;4.30;4.10;;;21.90;94.80;;;;;;5013576;28;20474;-62
2022/11/10 00:09:38;;;;;;;3.70;3.50;;;21.90;94.80;;;;;;5013514;28;21140;-62
2022/11/10 00:12:05;;;;;;;3.00;2.90;;;21.80;94.80;;;;;;5013655;28;20448;-63
2022/11/10 00:17:16;;;;;;;3.60;3.50;;;21.80;94.90;;;;;;4993862;28;20466;-62
2022/11/10 00:19:44;;;;;;;3.60;3.40;;;21.80;94.90;;;;;;4993037;28;20982;-63
2022/11/10 00:22:11;;;;;;;3.00;2.90;;;21.80;95.00;;;;;;4994000;28;20871;-63
2022/11/10 00:24:38;;;;;;;3.20;3.10;;;21.70;94.90;;;;;;5008533;28;20460;-61
2022/11/10 00:27:05;;;;;;;3.70;3.60;;;21.70;95.00;;;;;;5013269;28;20500;-63
2022/11/10 00:29:32;;;;;;;6.13;4.50;;;21.70;95.00;;;;;;5013171;28;20462;-63
2022/11/10 00:31:58;;;;;;;3.83;3.70;;;21.70;95.00;;;;;;5013279;28;20461;-62
2022/11/10 00:34:25;;;;;;;12.90;3.53;;;21.70;95.00;;;;;;5013105;28;20472;-64
2022/11/10 00:36:53;;;;;;;3.47;3.37;;;21.70;95.10;;;;;;5012933;28;20486;-63
2022/11/10 00:39:20;;;;;;;3.20;3.10;;;21.70;95.20;;;;;;5012887;28;20462;-63
2022/11/10 00:41:47;;;;;;;3.53;3.43;;;21.60;95.20;;;;;;5013162;28;20818;-62
2022/11/10 00:44:14;;;;;;;3.27;3.13;;;21.70;95.20;;;;;;5012829;28;20452;-62
2022/11/10 00:46:40;;;;;;;3.20;3.07;;;21.60;95.20;;;;;;5012637;28;20963;-62
2022/11/10 00:49:07;;;;;;;3.53;3.30;;;21.60;95.20;;;;;;5012695;28;20472;-62
2022/11/10 00:51:34;;;;;;;3.40;3.30;;;21.60;95.30;;;;;;5012823;28;20445;-62
2022/11/10 00:54:02;;;;;;;3.90;3.60;;;21.60;95.30;;;;;;5012408;28;20485;-63
2022/11/10 00:56:29;;;;;;;3.77;3.53;;;21.60;95.40;;;;;;5012486;28;20509;-62
2022/11/10 00:58:56;;;;;;;3.47;3.27;;;21.60;95.40;;;;;;5012512;28;20464;-63
2022/11/10 01:01:25;;;;;;;3.47;3.37;;;21.50;95.40;;;;;;5012601;28;20538;-62
2022/11/10 01:03:52;;;;;;;3.97;3.77;;;21.60;95.50;;;;;;5012322;28;20860;-62
2022/11/10 01:06:20;;;;;;;3.67;3.57;;;21.50;95.50;;;;;;5012358;28;20483;-63
2022/11/10 01:08:48;;;;;;;3.53;3.43;;;21.50;95.50;;;;;;5012241;28;20981;-62
2022/11/10 01:11:18;;;;;;;3.23;3.03;;;21.50;95.60;;;;;;5012412;28;20442;-64
2022/11/10 01:13:45;;;;;;;3.50;3.40;;;21.50;95.60;;;;;;5012242;28;20457;-63
2022/11/10 01:16:15;;;;;;;3.20;3.10;;;21.50;95.60;;;;;;5011919;28;20576;-63
2022/11/10 01:18:42;;;;;;;4.30;4.00;;;21.50;95.70;;;;;;5012134;28;20542;-62
2022/11/10 01:21:09;;;;;;;3.50;3.30;;;21.50;96.00;;;;;;5012342;28;20446;-63
2022/11/10 01:23:36;;;;;;;3.37;3.07;;;21.50;95.70;;;;;;5012014;28;20446;-63
2022/11/10 01:26:05;;;;;;;3.60;3.47;;;21.50;95.80;;;;;;5012279;28;20453;-63
2022/11/10 01:28:35;;;;;;;5.00;4.60;;;21.50;95.80;;;;;;5011969;28;20469;-62
2022/11/10 01:31:04;;;;;;;3.83;3.73;;;21.50;95.80;;;;;;5011779;28;20441;-62
2022/11/10 01:33:31;;;;;;;3.40;3.20;;;21.50;95.80;;;;;;5011945;28;20460;-62
2022/11/10 01:35:58;;;;;;;3.07;3.00;;;21.50;95.80;;;;;;5011984;28;20793;-63
2022/11/10 01:38:27;;;;;;;3.10;3.10;;;21.50;95.80;;;;;;5011753;28;20480;-62
2022/11/10 01:40:55;;;;;;;3.73;3.63;;;21.50;95.80;;;;;;5012076;28;20480;-63
2022/11/10 01:43:22;;;;;;;3.60;3.30;;;21.50;95.80;;;;;;5011837;28;20533;-63
2022/11/10 01:45:52;;;;;;;3.63;3.33;;;21.40;95.80;;;;;;5011984;28;20446;-62
2022/11/10 01:48:27;;;;;;;3.20;3.10;;;21.50;95.80;;;;;;5011855;28;20544;-63
2022/11/10 01:50:56;;;;;;;4.10;3.90;;;21.40;95.80;;;;;;5011870;28;20449;-62
2022/11/10 01:53:27;;;;;;;3.90;3.73;;;21.40;95.80;;;;;;5011615;28;20450;-62
2022/11/10 01:55:55;;;;;;;3.37;3.20;;;21.40;95.90;;;;;;5012164;28;20533;-62
2022/11/10 01:58:26;;;;;;;3.50;3.30;;;21.40;95.90;;;;;;5011650;28;20811;-63
2022/11/10 02:00:54;;;;;;;3.13;3.00;;;21.40;95.90;;;;;;5011807;28;20540;-62
2022/11/10 02:03:29;;;;;;;3.13;3.03;;;21.40;95.90;;;;;;5011637;28;20911;-63
2022/11/10 02:05:56;;;;;;;3.47;3.37;;;21.40;95.90;;;;;;5011870;28;21019;-63
2022/11/10 02:08:24;;;;;;;3.40;3.30;;;21.40;96.00;;;;;;5011662;28;20801;-63
2022/11/10 02:10:51;;;;;;;3.33;3.10;;;21.30;95.90;;;;;;5011725;28;20474;-63
2022/11/10 02:13:18;;;;;;;3.07;2.97;;;21.40;96.00;;;;;;5011605;28;20863;-62
2022/11/10 02:15:45;;;;;;;3.33;3.20;;;21.40;96.00;;;;;;5011713;28;20438;-62
2022/11/10 02:18:13;;;;;;;3.10;3.00;;;21.40;96.00;;;;;;5011452;28;20492;-62
2022/11/10 02:20:44;;;;;;;3.63;3.43;;;21.40;95.90;;;;;;5011316;28;20476;-62
2022/11/10 02:23:13;;;;;;;3.10;3.00;;;21.40;96.00;;;;;;5011806;28;20856;-64
2022/11/10 02:25:40;;;;;;;3.40;3.30;;;21.30;95.90;;;;;;5011652;28;21016;-62
2022/11/10 02:28:07;;;;;;;3.67;3.57;;;21.30;96.00;;;;;;5011378;28;20528;-62
2022/11/10 02:30:33;;;;;;;3.37;3.27;;;21.30;96.00;;;;;;5011334;28;20466;-62
2022/11/10 02:33:02;;;;;;;3.23;3.13;;;21.30;96.00;;;;;;5011458;28;20516;-62
2022/11/10 02:35:29;;;;;;;3.57;3.47;;;21.30;96.10;;;;;;5011506;28;20454;-62
2022/11/10 02:37:57;;;;;;;3.80;3.63;;;21.30;96.10;;;;;;5011243;28;20487;-62
2022/11/10 02:40:24;;;;;;;3.57;3.47;;;21.30;96.10;;;;;;5011031;28;20473;-62
2022/11/10 02:42:51;;;;;;;3.87;3.67;;;21.30;96.20;;;;;;5013165;28;20442;-63
2022/11/10 02:45:17;;;;;;;3.70;3.60;;;21.30;96.10;;;;;;5015332;28;20880;-63
2022/11/10 02:47:44;;;;;;;3.87;3.77;;;21.30;96.20;;;;;;5014809;28;20484;-63
2022/11/10 02:50:11;;;;;;;3.60;3.40;;;21.30;96.20;;;;;;5014726;28;20466;-63
2022/11/10 02:52:38;;;;;;;3.60;3.40;;;21.30;96.20;;;;;;5015057;28;21044;-62
2022/11/10 02:55:07;;;;;;;3.87;3.57;;;21.30;96.20;;;;;;5014860;28;20536;-63
2022/11/10 02:57:34;;;;;;;3.03;2.97;;;21.30;96.20;;;;;;5014702;28;20580;-63
2022/11/10 03:00:01;;;;;;;3.63;3.53;;;21.30;96.20;;;;;;5014469;28;20580;-63
2022/11/10 03:02:28;;;;;;;4.20;4.00;;;21.30;96.30;;;;;;5014804;28;20481;-63
2022/11/10 03:04:54;;;;;;;3.70;3.60;;;21.30;96.30;;;;;;5014669;28;20446;-62
2022/11/10 03:07:21;;;;;;;3.07;2.97;;;21.30;96.30;;;;;;5014557;28;20442;-62
2022/11/10 03:09:49;;;;;;;3.80;3.70;;;21.30;96.30;;;;;;5014323;28;20556;-61
2022/11/10 03:12:17;;;;;;;3.30;3.13;;;21.30;96.30;;;;;;5014459;28;20453;-63
2022/11/10 03:14:44;;;;;;;3.63;3.50;;;21.30;96.30;;;;;;5014532;28;20478;-63
2022/11/10 03:17:11;;;;;;;3.60;3.50;;;21.30;96.30;;;;;;5014270;28;20517;-63
2022/11/10 03:19:38;;;;;;;3.57;3.27;;;21.20;96.20;;;;;;5014128;28;20973;-63
2022/11/10 03:22:05;;;;;;;3.77;3.57;;;21.30;96.30;;;;;;5014328;28;20449;-63
2022/11/10 03:24:32;;;;;;;3.33;3.23;;;21.20;96.30;;;;;;5014445;28;20813;-63
2022/11/10 03:26:58;;;;;;;3.20;3.10;;;21.20;96.30;;;;;;5014068;28;20446;-62
2022/11/10 03:29:27;;;;;;;3.27;3.10;;;21.20;96.30;;;;;;5014242;28;20504;-62
2022/11/10 03:31:54;;;;;;;3.87;3.77;;;21.20;96.30;;;;;;5014357;28;20437;-62
2022/11/10 03:34:20;;;;;;;3.87;3.77;;;21.20;96.30;;;;;;5014163;28;20953;-63
2022/11/10 03:36:47;;;;;;;3.70;3.60;;;21.20;96.30;;;;;;5013824;28;20489;-62
2022/11/10 03:39:14;;;;;;;3.33;3.13;;;21.20;96.30;;;;;;5013837;28;20963;-63
2022/11/10 03:41:41;;;;;;;3.93;3.83;;;21.20;96.30;;;;;;5014050;28;20442;-63
2022/11/10 03:44:08;;;;;;;3.80;3.60;;;21.20;96.30;;;;;;5014041;28;20438;-62
2022/11/10 03:46:36;;;;;;;3.10;3.00;;;21.20;96.20;;;;;;5013919;28;20889;-63
2022/11/10 03:49:03;;;;;;;3.53;3.23;;;21.20;96.30;;;;;;5013526;28;20470;-63
2022/11/10 03:51:30;;;;;;;3.40;3.30;;;21.20;96.30;;;;;;5013879;28;20482;-62
2022/11/10 03:53:56;;;;;;;3.50;3.40;;;21.20;96.30;;;;;;5013702;28;20529;-63
2022/11/10 03:56:23;;;;;;;4.00;3.90;;;21.20;96.30;;;;;;5013704;28;21155;-63
2022/11/10 03:58:50;;;;;;;3.50;3.30;;;21.20;96.30;;;;;;5013397;28;20489;-63
2022/11/10 04:01:17;;;;;;;3.20;3.10;;;21.20;96.30;;;;;;5013907;28;20449;-63
2022/11/10 04:03:45;;;;;;;2.90;2.80;;;21.20;96.30;;;;;;5013629;28;20450;-63
2022/11/10 04:08:59;;;;;;;3.30;3.20;;;21.20;96.40;;;;;;5013398;28;20462;-62
2022/11/10 04:16:55;;;;;;;3.73;3.63;;;21.20;96.70;;;;;;5013203;28;20500;-62
2022/11/10 04:19:23;;;;;;;3.53;3.43;;;21.20;96.40;;;;;;5046074;23;20579;-51
2022/11/10 04:21:50;;;;;;;3.67;3.47;;;21.20;96.40;;;;;;5045690;28;20520;-60
2022/11/10 04:24:17;;;;;;;3.60;3.40;;;21.20;96.40;;;;;;5033180;28;20536;-60
2022/11/10 04:26:47;;;;;;;3.70;3.50;;;21.20;96.40;;;;;;5033959;28;20535;-61
2022/11/10 04:29:17;;;;;;;3.97;3.80;;;21.20;96.40;;;;;;5029431;28;20934;-61
2022/11/10 04:31:44;;;;;;;3.63;3.50;;;21.20;96.70;;;;;;5014833;28;20482;-62
2022/11/10 04:34:13;;;;;;;3.10;3.00;;;21.20;96.40;;;;;;5013945;28;20525;-60
2022/11/10 04:36:44;;;;;;;3.60;3.40;;;21.20;96.40;;;;;;5001051;28;20545;-62
2022/11/10 04:39:11;;;;;;;3.60;3.40;;;21.20;96.30;;;;;;4993972;28;20463;-62
2022/11/10 04:41:38;;;;;;;5.40;5.00;;;21.30;96.30;;;;;;4993790;28;20457;-60
2022/11/10 04:44:06;;;;;;;4.87;4.47;;;21.30;96.30;;;;;;4993467;28;20874;-60
2022/11/10 04:46:35;;;;;;;5.70;5.20;;;21.30;97.10;;;;;;5003010;28;20516;-56
2022/11/10 04:49:04;;;;;;;6.10;5.70;;;21.40;97.60;;;;;;4997659;28;20518;-60
2022/11/10 04:51:34;;;;;;;5.77;5.30;;;21.40;98.40;;;;;;5011210;28;21059;-55
2022/11/10 04:54:02;;;;;;;6.40;5.73;;;21.50;99.50;;;;;;5008599;28;20868;-60
2022/11/10 04:56:29;;;;;;;15.70;5.20;;;21.60;99.40;;;;;;5010834;28;20478;-60
2022/11/10 04:58:57;;;;;;;6.03;5.50;;;21.70;98.90;;;;;;5012421;28;20478;-60
2022/11/10 05:01:32;;;;;;;8.97;5.57;;;21.80;98.60;;;;;;5012162;28;20448;-54
2022/11/10 05:04:00;;;;;;;6.27;5.60;;;21.90;98.40;;;;;;5010809;28;20446;-60
2022/11/10 05:06:28;;;;;;;5.93;5.40;;;21.90;98.00;;;;;;5011383;28;20456;-57
2022/11/10 05:08:54;;;;;;;5.67;5.20;;;22.00;97.60;;;;;;5012299;28;20477;-60
2022/11/10 05:11:25;;;;;;;7.53;6.00;;;22.10;97.30;;;;;;5012849;28;20690;-61
2022/11/10 05:13:52;;;;;;;5.50;5.13;;;22.10;97.00;;;;;;5013128;28;20446;-61
2022/11/10 05:16:19;;;;;;;6.37;5.80;;;22.20;97.00;;;;;;5009699;28;21016;-60
2022/11/10 05:18:45;;;;;;;6.33;5.70;;;22.30;96.50;;;;;;5012319;28;20477;-57
2022/11/10 05:21:12;;;;;;;11.83;5.60;;;22.30;96.10;;;;;;5013038;28;20446;-57
2022/11/10 05:23:40;;;;;;;5.53;5.20;;;22.40;96.00;;;;;;5012762;28;20477;-59
2022/11/10 05:26:09;;;;;;;6.10;5.73;;;22.40;95.90;;;;;;5011998;28;20485;-54
2022/11/10 05:28:38;;;;;;;5.90;5.33;;;22.40;95.70;;;;;;5001213;28;20481;-52
2022/11/10 05:31:05;;;;;;;6.00;5.60;;;22.50;95.50;;;;;;4992518;28;20521;-49
2022/11/10 05:33:32;;;;;;;6.20;5.80;;;22.50;95.20;;;;;;4992647;28;20451;-52
2022/11/10 05:35:59;;;;;;;5.93;5.60;;;22.60;95.20;;;;;;4992704;28;20526;-48
2022/11/10 05:38:28;;;;;;;6.70;6.20;;;22.50;94.80;;;;;;5001255;28;20580;-50
2022/11/10 05:40:56;;;;;;;6.87;6.40;;;22.50;94.70;;;;;;5012783;28;20466;-53
2022/11/10 05:43:25;;;;;;;6.43;5.93;;;22.50;94.60;;;;;;5012649;28;20465;-52
2022/11/10 05:45:54;;;;;;;7.27;6.77;;;22.60;94.50;;;;;;5013207;28;20844;-55
2022/11/10 05:48:21;;;;;;;9.00;7.43;;;22.60;94.40;;;;;;5013037;28;20450;-52
2022/11/10 05:50:48;;;;;;;5.77;5.40;;;22.60;94.20;;;;;;5012998;28;20466;-53
2022/11/10 05:53:15;;;;;;;6.67;6.30;;;22.50;94.10;;;;;;5012220;28;20453;-52
2022/11/10 05:55:45;;;;;;;6.70;6.30;;;22.50;94.00;;;;;;5012523;28;20449;-52
2022/11/10 05:58:12;;;;;;;6.80;6.17;;;22.50;93.90;;;;;;5012302;28;20513;-49
2022/11/10 06:00:39;;;;;;;5.77;5.60;;;22.50;93.80;;;;;;5011991;28;20689;-51
2022/11/10 06:03:13;;;;;;;6.70;6.27;;;22.50;93.70;;;;;;5012282;28;20541;-53
2022/11/10 06:05:41;;;;;;;6.33;6.10;;;22.50;93.70;;;;;;5011857;28;20455;-51
2022/11/10 06:08:08;;;;;;;6.43;6.23;;;22.50;93.60;;;;;;5011663;28;20617;-52
2022/11/10 06:10:36;;;;;;;6.57;6.27;;;22.50;93.50;;;;;;5012423;28;20566;-58
2022/11/10 06:13:03;;;;;;;6.50;6.13;;;22.50;93.40;;;;;;5012397;28;20446;-55
2022/11/10 06:15:31;;;;;;;7.20;6.60;;;22.40;93.30;;;;;;5011837;28;20852;-51
2022/11/10 06:17:58;;;;;;;6.83;6.53;;;22.40;93.20;;;;;;5014406;28;20482;-53
2022/11/10 06:20:27;;;;;;;6.70;6.30;;;22.40;93.10;;;;;;5015710;28;21154;-49
2022/11/10 06:23:02;;;;;;;6.57;6.30;;;22.40;93.00;;;;;;5015615;28;20529;-57
2022/11/10 06:25:31;;;;;;;6.50;6.13;;;22.40;93.30;;;;;;5015701;28;20917;-51
2022/11/10 06:27:59;;;;;;;7.13;6.70;;;22.40;93.00;;;;;;5016040;28;20442;-49
2022/11/10 06:30:27;;;;;;;5.53;5.43;;;22.30;92.90;;;;;;5016059;28;20489;-53
2022/11/10 06:32:55;;;;;;;6.53;6.10;;;22.30;92.80;;;;;;5015864;28;20504;-54
2022/11/10 06:35:22;;;;;;;6.47;6.17;;;22.30;92.70;;;;;;5015153;28;20461;-57
2022/11/10 06:38:00;;;;;;;6.50;6.07;;;22.30;92.60;;;;;;5015585;28;20520;-54
2022/11/10 06:40:27;;;;;;;6.17;5.97;;;22.30;92.50;;;;;;5015379;28;20472;-50
2022/11/10 06:42:54;;;;;;;6.03;5.83;;;22.20;92.50;;;;;;5015612;28;20448;-51
2022/11/10 06:45:22;;;;;;;5.63;5.53;;;22.20;92.40;;;;;;5016030;28;20450;-52
2022/11/10 06:47:50;;;;;;;5.83;5.63;;;22.20;92.40;;;;;;5015382;28;20859;-56
2022/11/10 06:50:17;;;;;;;5.90;5.70;;;22.20;92.40;;;;;;5015575;28;20985;-53
2022/11/10 06:52:44;;;;;;;6.30;5.90;;;22.20;92.30;;;;;;5015694;28;20986;-52
2022/11/10 06:55:13;;;;;;;6.60;6.37;;;22.20;92.20;;;;;;5015338;28;20996;-56
2022/11/10 06:57:41;;;;;;;6.20;5.93;;;22.10;92.20;;;;;;5015185;28;20446;-52
2022/11/10 07:00:09;;;;;;;5.63;5.43;;;22.10;92.20;;;;;;5015357;28;20553;-52
2022/11/10 07:02:36;;;;;;;6.33;6.03;;;22.10;92.10;;;;;;5015205;28;20456;-52
2022/11/10 07:05:04;;;;;;;5.53;5.33;;;22.10;92.20;;;;;;5015014;28;20456;-56
2022/11/10 07:07:30;;;;;;;6.50;6.10;;;22.10;92.20;;;;;;5014898;28;20450;-50
2022/11/10 07:09:57;;;;;;;6.10;5.90;;;22.10;92.20;;;;;;5015104;28;20461;-55
2022/11/10 07:12:26;;;;;;;5.63;5.43;;;22.10;92.20;;;;;;5015260;28;20540;-50
2022/11/10 07:14:54;;;;;;;5.90;5.70;;;22.10;92.20;;;;;;5015427;28;20528;-50
2022/11/10 07:17:21;;;;;;;5.50;5.40;;;22.10;92.20;;;;;;5014495;28;20536;-55
2022/11/10 07:19:48;;;;;;;7.23;6.80;;;22.10;92.20;;;;;;5014539;28;20880;-50
2022/11/10 07:22:15;;;;;;;6.57;6.33;;;22.10;92.20;;;;;;5014488;28;20446;-55
2022/11/10 07:24:42;;;;;;;6.23;5.90;;;22.10;92.20;;;;;;5014873;28;20450;-55
2022/11/10 07:27:08;;;;;;;5.77;5.67;;;22.10;92.20;;;;;;5014573;28;20450;-53
2022/11/10 07:29:38;;;;;;;6.50;6.20;;;22.10;92.20;;;;;;5014210;28;20492;-53
2022/11/10 07:32:05;;;;;;;5.83;5.57;;;22.10;92.10;;;;;;5014850;28;20489;-52
2022/11/10 07:34:32;;;;;;;6.00;5.73;;;22.20;92.20;;;;;;5014836;28;20536;-53
2022/11/10 07:36:59;;;;;;;5.77;5.67;;;22.10;92.10;;;;;;5014303;28;20446;-51
2022/11/10 07:39:26;;;;;;;5.73;5.43;;;22.20;92.10;;;;;;5014012;28;20485;-53
2022/11/10 07:41:53;;;;;;;6.23;6.00;;;22.20;92.00;;;;;;5014488;28;20816;-61
2022/11/10 07:44:20;;;;;;;6.50;6.30;;;22.10;91.90;;;;;;5014451;28;20561;-62
2022/11/10 07:46:49;;;;;;;6.30;6.00;;;22.10;91.90;;;;;;5014473;28;20537;-61
2022/11/10 07:49:15;;;;;;;6.97;6.70;;;22.10;91.80;;;;;;5014216;28;20537;-63
2022/11/10 07:51:43;;;;;;;6.30;6.13;;;22.20;91.80;;;;;;5014214;28;20532;-63
2022/11/10 07:54:10;;;;;;;6.50;6.13;;;22.10;91.70;;;;;;5014314;28;20869;-62
2022/11/10 07:56:37;;;;;;;6.03;5.80;;;22.10;91.60;;;;;;5014124;28;20476;-62
2022/11/10 07:59:04;;;;;;;6.80;6.47;;;22.10;91.60;;;;;;5013889;28;20489;-60
2022/11/10 08:01:32;;;;;;;7.07;6.77;;;22.10;91.50;;;;;;5013996;28;20528;-50
2022/11/10 08:04:01;;;;;;;5.80;5.70;;;22.10;91.50;;;;;;5013934;28;20960;-53
2022/11/10 08:06:27;;;;;;;6.03;5.83;;;22.10;91.50;;;;;;5014120;28;21032;-52
2022/11/10 08:08:54;;;;;;;6.53;6.23;;;22.10;91.40;;;;;;5014027;28;20434;-57
2022/11/10 08:11:21;;;;;;;6.00;5.77;;;22.10;91.40;;;;;;5013745;28;20544;-55
2022/11/10 08:13:49;;;;;;;6.93;6.73;;;22.10;91.40;;;;;;5014183;28;20963;-51
2022/11/10 08:16:17;;;;;;;6.37;6.17;;;22.10;91.30;;;;;;5014118;28;20458;-52
2022/11/10 08:18:44;;;;;;;6.10;5.90;;;22.10;91.30;;;;;;5013817;28;20497;-62
2022/11/10 08:21:12;;;;;;;5.60;5.50;;;22.10;91.40;;;;;;5013710;28;20457;-62
2022/11/10 08:23:39;;;;;;;6.40;6.20;;;22.10;91.40;;;;;;5013825;28;20454;-61
2022/11/10 08:26:06;;;;;;;6.10;6.00;;;22.10;91.40;;;;;;5014313;28;20544;-62
2022/11/10 08:28:33;;;;;;;6.43;6.30;;;22.10;91.40;;;;;;5014297;28;20481;-62
2022/11/10 08:31:03;;;;;;;6.70;6.43;;;22.10;91.40;;;;;;5015234;28;20496;-61
2022/11/10 08:33:30;;;;;;;6.30;6.10;;;22.10;91.40;;;;;;5014298;28;20999;-62
2022/11/10 08:35:57;;;;;;;6.40;6.20;;;22.10;91.40;;;;;;5014535;28;20531;-61
2022/11/10 08:38:26;;;;;;;6.60;6.30;;;22.10;91.40;;;;;;5014376;28;20557;-61
2022/11/10 08:40:52;;;;;;;6.60;6.20;;;22.10;91.40;;;;;;5023793;28;21032;-63
2022/11/10 08:43:19;;;;;;;6.57;6.43;;;22.10;91.40;;;;;;5027058;28;20449;-60
2022/11/10 08:45:46;;;;;;;7.17;6.97;;;22.10;91.40;;;;;;5025479;28;20521;-61
2022/11/10 08:48:15;;;;;;;6.83;6.60;;;22.10;91.30;;;;;;5018529;28;20882;-62
2022/11/10 08:50:43;;;;;;;7.20;6.90;;;22.10;91.30;;;;;;5020604;28;20466;-58
2022/11/10 08:53:12;;;;;;;6.80;6.60;;;22.10;91.20;;;;;;5027184;28;20510;-61
2022/11/10 08:55:41;;;;;;;6.93;6.73;;;22.10;91.20;;;;;;5027072;28;20492;-63
2022/11/10 08:58:08;;;;;;;6.30;6.20;;;22.10;91.20;;;;;;5028342;28;20456;-59
2022/11/10 09:00:36;;;;;;;6.17;5.97;;;22.10;91.10;;;;;;5028345;28;20465;-62
2022/11/10 09:03:06;;;;;;;7.60;7.30;;;22.10;91.10;;;;;;5029422;28;20813;-61
2022/11/10 09:05:34;;;;;;;7.17;6.97;;;22.20;91.10;;;;;;5029998;28;20513;-62
2022/11/10 09:08:02;;;;;;;6.60;6.30;;;22.10;91.00;;;;;;5023376;28;20446;-60
2022/11/10 09:10:28;;;;;;;6.63;6.43;;;22.10;91.00;;;;;;5017300;28;20549;-60
2022/11/10 09:13:00;;;;;;;6.43;6.03;;;22.10;90.90;;;;;;5016714;28;21017;-61
2022/11/10 09:15:27;;;;;;;6.50;6.20;;;22.10;90.90;;;;;;5014472;28;20465;-60
2022/11/10 09:17:54;;;;;;;6.70;6.40;;;22.10;90.80;;;;;;5014627;28;20480;-62
2022/11/10 09:20:21;;;;;;;5.70;5.60;;;22.10;90.80;;;;;;5014812;28;20568;-60
2022/11/10 09:22:49;;;;;;;6.63;6.30;;;22.10;90.70;;;;;;5015221;28;20456;-61
2022/11/10 09:25:17;;;;;;;6.07;5.87;;;22.10;90.70;;;;;;5014475;28;20505;-61
2022/11/10 09:27:44;;;;;;;6.13;5.93;;;22.10;90.70;;;;;;5014343;28;20481;-60
2022/11/10 09:30:13;;;;;;;6.10;5.87;;;22.10;90.70;;;;;;5014264;28;20457;-59
2022/11/10 09:32:40;;;;;;;6.00;5.90;;;22.10;90.70;;;;;;5015914;28;20466;-61
2022/11/10 09:35:07;;;;;;;6.80;6.60;;;22.10;90.60;;;;;;5014940;28;20528;-57
2022/11/10 09:37:40;;;;;;;6.70;6.40;;;22.10;90.70;;;;;;5014333;28;20457;-60
2022/11/10 09:40:12;;;;;;;6.50;6.30;;;22.10;90.70;;;;;;5014134;28;20860;-59
2022/11/10 09:42:41;;;;;;;6.50;6.33;;;22.10;90.60;;;;;;5014368;28;20446;-59
2022/11/10 09:45:22;;;;;;;6.90;6.60;;;22.10;90.70;;;;;;5014055;28;20480;-60
2022/11/10 09:47:57;;;;;;;6.43;6.27;;;22.10;90.70;;;;;;5014099;28;20454;-60
2022/11/10 09:50:33;;;;;;;6.60;6.50;;;22.10;90.70;;;;;;5014654;28;20497;-60
2022/11/10 09:53:02;;;;;;;6.90;6.70;;;22.10;90.70;;;;;;5013340;28;20830;-61
2022/11/10 09:55:37;;;;;;;6.20;5.93;;;22.10;90.70;;;;;;5014073;28;20891;-60
2022/11/10 09:58:05;;;;;;;7.87;7.43;;;22.10;90.70;;;;;;5014447;28;20449;-62
2022/11/10 10:00:36;;;;;;;6.17;6.00;;;22.10;90.70;;;;;;5013765;28;20512;-60
2022/11/10 10:03:04;;;;;;;6.87;6.67;;;22.10;90.70;;;;;;5013498;28;20450;-51
2022/11/10 10:05:51;;;;;;;6.13;6.03;;;22.10;90.70;;;;;;5013295;28;20508;-58
2022/11/10 10:08:26;;;;;;;7.03;6.83;;;22.10;90.60;;;;;;5013828;28;20453;-54
2022/11/10 10:11:00;;;;;;;5.80;5.60;;;22.20;90.60;;;;;;5014034;28;20548;-52
2022/11/10 10:13:45;;;;;;;6.70;6.20;;;22.20;90.60;;;;;;5013488;28;20448;-52
2022/11/10 10:16:20;;;;;;;6.30;6.13;;;22.10;90.60;;;;;;5013236;28;20454;-60
2022/11/10 10:18:54;;;;;;;6.00;5.90;;;22.10;90.50;;;;;;5014232;28;20487;-53
2022/11/10 10:21:35;;;;;;;6.20;6.10;;;22.20;90.60;;;;;;5014800;28;21003;-61
2022/11/10 10:24:02;;;;;;;5.97;5.87;;;22.20;90.50;;;;;;5015128;28;20449;-63
2022/11/10 10:26:32;;;;;;;6.80;6.60;;;22.20;90.50;;;;;;5015141;28;20530;-62
2022/11/10 10:29:07;;;;;;;7.10;6.90;;;22.20;90.50;;;;;;5013877;28;20444;-62
2022/11/10 10:31:41;;;;;;;6.50;6.40;;;22.20;90.40;;;;;;5014552;28;20469;-61
2022/11/10 10:34:13;;;;;;;6.80;6.60;;;22.20;90.40;;;;;;5013729;28;20529;-60
2022/11/10 10:36:40;;;;;;;6.47;6.37;;;22.20;90.40;;;;;;5013875;28;20446;-61
2022/11/10 10:39:11;;;;;;;6.70;6.50;;;22.20;90.40;;;;;;5012337;28;20521;-63
2022/11/10 10:41:38;;;;;;;6.43;6.33;;;22.20;90.30;;;;;;5012980;28;20537;-63
2022/11/10 10:44:13;;;;;;;6.70;6.60;;;22.20;90.30;;;;;;5015477;28;20537;-62
2022/11/10 10:46:47;;;;;;;6.93;6.50;;;22.20;90.30;;;;;;5013221;28;20967;-63
2022/11/10 10:49:17;;;;;;;7.50;7.13;;;22.20;90.30;;;;;;5014636;28;20500;-62
2022/11/10 10:51:46;;;;;;;6.17;6.07;;;22.20;90.30;;;;;;5014492;28;20450;-62
2022/11/10 10:54:25;;;;;;;6.50;6.30;;;22.20;90.20;;;;;;5014743;28;20497;-62
2022/11/10 10:57:05;;;;;;;6.77;6.57;;;22.20;90.20;;;;;;5014276;28;20442;-62
2022/11/10 10:59:33;;;;;;;6.20;5.90;;;22.20;90.20;;;;;;5014954;28;20928;-62
2022/11/10 11:02:01;;;;;;;6.20;6.10;;;22.20;90.20;;;;;;5012080;28;20955;-63
2022/11/10 11:04:34;;;;;;;7.10;6.70;;;22.20;90.20;;;;;;5016999;28;20944;-63
2022/11/10 11:07:03;;;;;;;6.23;6.13;;;22.20;90.20;;;;;;5018070;28;20953;-62
2022/11/10 11:09:42;;;;;;;7.07;6.77;;;22.20;90.20;;;;;;5018437;28;20469;-64
2022/11/10 11:12:12;;;;;;;6.60;6.40;;;22.20;90.20;;;;;;5017996;28;20860;-63
2022/11/10 11:14:39;;;;;;;6.80;6.60;;;22.30;90.30;;;;;;5017972;28;20808;-64
2022/11/10 11:17:20;;;;;;;6.60;6.40;;;22.30;90.20;;;;;;5017487;28;20446;-64
2022/11/10 11:19:50;;;;;;;6.77;6.23;;;22.30;90.20;;;;;;5016833;28;20588;-60
2022/11/10 11:22:38;;;;;;;6.70;6.40;;;22.30;90.20;;;;;;5015331;28;20454;-64
2022/11/10 11:25:16;;;;;;;6.80;6.60;;;22.30;90.10;;;;;;5014693;28;20442;-60
2022/11/10 11:27:51;;;;;;;6.77;6.57;;;22.30;90.10;;;;;;5014295;28;20477;-62
2022/11/10 11:30:19;;;;;;;6.20;6.10;;;22.30;90.00;;;;;;5014495;28;20474;-62
2022/11/10 11:33:01;;;;;;;6.93;6.67;;;22.30;90.00;;;;;;5014364;28;20488;-61
2022/11/10 11:35:39;;;;;;;6.40;6.30;;;22.30;89.90;;;;;;5014374;28;20481;-61
2022/11/10 11:38:12;;;;;;;6.97;6.73;;;22.40;89.90;;;;;;5014187;28;20528;-62
2022/11/10 11:40:48;;;;;;;6.27;6.17;;;22.40;89.80;;;;;;5014410;28;20598;-62
2022/11/10 11:43:47;;;;;;;6.63;6.43;;;22.40;89.60;;;;;;5015000;28;20473;-61
2022/11/10 11:46:26;;;;;;;6.37;6.13;;;22.40;89.40;;;;;;5015092;28;20539;-62
2022/11/10 11:49:04;;;;;;;6.60;6.40;;;22.40;89.30;;;;;;5015084;28;21001;-62
2022/11/10 11:51:40;;;;;;;6.77;6.67;;;22.40;89.20;;;;;;5016963;28;20544;-62
2022/11/10 11:54:21;;;;;;;6.37;6.17;;;22.40;89.10;;;;;;5017100;28;20442;-61
2022/11/10 11:56:50;;;;;;;6.73;6.53;;;22.40;89.00;;;;;;5016062;28;20485;-60
2022/11/10 11:59:37;;;;;;;6.50;6.40;;;22.40;89.00;;;;;;5015345;28;20513;-61
2022/11/10 12:02:29;;;;;;;6.63;6.27;;;22.40;88.90;;;;;;5016753;28;21019;-62
2022/11/10 12:05:04;;;;;;;7.70;7.40;;;22.40;88.90;;;;;;5016528;28;20984;-62
2022/11/10 12:07:46;;;;;;;6.37;6.27;;;22.40;88.90;;;;;;5017442;28;20456;-61
2022/11/10 12:10:24;;;;;;;6.50;6.30;;;22.40;88.80;;;;;;5017667;28;20466;-61
2022/11/10 12:13:25;;;;;;;6.53;6.33;;;22.40;88.80;;;;;;5017229;28;20548;-61
2022/11/10 12:15:58;;;;;;;6.20;6.10;;;22.40;88.70;;;;;;5017127;28;20894;-62
2022/11/10 12:18:32;;;;;;;6.80;6.60;;;22.50;88.80;;;;;;5016503;28;20478;-62
2022/11/10 12:21:15;;;;;;;6.60;6.40;;;22.50;88.80;;;;;;5016518;28;20962;-62
2022/11/10 12:24:09;;;;;;;6.60;6.50;;;22.50;88.80;;;;;;5014548;28;20458;-62
2022/11/10 12:26:43;;;;;;;6.80;6.60;;;22.50;88.80;;;;;;4998972;28;20522;-63
2022/11/10 12:29:21;;;;;;;6.40;6.30;;;22.50;88.80;;;;;;5016559;28;20524;-62
2022/11/10 12:31:53;;;;;;;6.50;6.30;;;22.50;88.80;;;;;;5015625;28;20509;-62
2022/11/10 12:34:29;;;;;;;7.00;6.80;;;22.60;88.80;;;;;;5016628;28;20450;-61
2022/11/10 12:37:01;;;;;;;7.10;6.90;;;22.60;88.80;;;;;;5016324;28;20480;-62
2022/11/10 12:39:40;;;;;;;7.10;6.90;;;22.60;88.60;;;;;;5015103;28;20572;-58
2022/11/10 12:42:14;;;;;;;6.97;6.77;;;22.60;88.50;;;;;;5015413;28;20880;-54
2022/11/10 12:44:56;;;;;;;6.73;6.53;;;22.70;88.60;;;;;;5013754;28;20489;-53
2022/11/10 12:47:28;;;;;;;6.93;6.73;;;22.70;88.40;;;;;;5013149;28;20449;-55
2022/11/10 12:50:03;;;;;;;6.27;6.17;;;22.60;88.20;;;;;;5013059;28;20490;-55
2022/11/10 12:52:37;;;;;;;6.00;5.90;;;22.70;88.30;;;;;;5012989;28;20544;-58
2022/11/10 12:55:06;;;;;;;6.70;6.40;;;22.70;88.10;;;;;;5012872;28;20459;-55
2022/11/10 12:57:35;;;;;;;5.90;5.80;;;22.70;88.00;;;;;;5012842;28;20492;-56
2022/11/10 13:00:05;;;;;;;5.97;5.87;;;22.70;87.80;;;;;;5012652;28;20989;-57
2022/11/10 13:02:37;;;;;;;6.60;6.50;;;22.70;87.70;;;;;;5012956;28;20450;-57
2022/11/10 13:05:24;;;;;;;6.53;6.40;;;22.70;87.60;;;;;;5012800;28;21033;-52
2022/11/10 13:08:21;;;;;;;6.37;6.17;;;22.70;87.50;;;;;;5012643;28;20496;-51
2022/11/10 13:10:53;;;;;;;6.70;6.50;;;22.80;87.40;;;;;;5003835;28;20532;-59